Time;durP1;ratioP1;P1;durP2;ratioP2;P2;SDS_P1;SDS_P2;PMS_P1;PMS_P2;Temp;Humidity;BMP_temperature;BMP_pressure;BME280_temperature;BME280_humidity;BME280_pressure;Samples;Min_cycle;Max_cycle;Signal;HPM_P1;HPM_P2
2023/11/19 00:02:21;;;;;;;23.05;5.00;;;13.70;99.90;;;;;;5012949;28;20053;-93
2023/11/19 00:04:47;;;;;;;36.42;6.80;;;14.10;99.90;;;;;;5013647;28;20053;-93
2023/11/19 00:07:13;;;;;;;25.67;6.05;;;14.00;99.90;;;;;;5012789;28;20053;-94
2023/11/19 00:09:45;;;;;;;23.23;5.50;;;14.00;99.90;;;;;;5013643;28;20030;-93
2023/11/19 00:12:11;;;;;;;42.40;6.75;;;14.30;99.90;;;;;;5015893;28;20026;-93
2023/11/19 00:14:36;;;;;;;27.27;4.60;;;13.30;99.90;;;;;;5016554;28;20493;-94
2023/11/19 00:17:03;;;;;;;29.40;5.50;;;13.30;99.90;;;;;;5019795;28;20625;-93
2023/11/19 00:19:29;;;;;;;33.47;5.90;;;13.30;99.90;;;;;;5016064;28;20037;-92
2023/11/19 00:21:55;;;;;;;35.83;6.65;;;13.60;99.90;;;;;;5010978;28;20030;-93
2023/11/19 00:24:20;;;;;;;40.67;6.55;;;13.30;99.90;;;;;;5016006;28;20517;-91
2023/11/19 00:26:46;;;;;;;31.70;7.05;;;13.30;99.90;;;;;;5006289;28;20034;-93
2023/11/19 00:29:13;;;;;;;34.05;7.03;;;13.90;99.90;;;;;;5013128;28;20034;-92
2023/11/19 00:31:39;;;;;;;33.85;7.00;;;13.40;99.90;;;;;;5007892;28;20026;-93
2023/11/19 00:34:06;;;;;;;29.13;6.13;;;13.60;99.90;;;;;;5009633;28;20039;-92
2023/11/19 00:36:34;;;;;;;39.30;6.75;;;14.20;99.90;;;;;;5007389;28;20033;-93
2023/11/19 00:39:03;;;;;;;29.88;5.65;;;14.20;99.90;;;;;;5004979;28;20062;-92
2023/11/19 00:41:28;;;;;;;39.05;6.80;;;13.30;99.90;;;;;;5007216;28;20038;-91
2023/11/19 00:43:54;;;;;;;31.70;6.75;;;14.20;99.90;;;;;;5015663;28;20054;-94
2023/11/19 00:46:26;;;;;;;35.63;7.00;;;13.50;99.90;;;;;;5018547;28;20053;-93
2023/11/19 00:48:51;;;;;;;46.00;7.10;;;13.70;99.90;;;;;;5023075;28;20018;-92
2023/11/19 00:51:17;;;;;;;43.70;8.05;;;14.20;99.90;;;;;;5028167;28;20481;-93
2023/11/19 00:53:46;;;;;;;47.80;8.15;;;14.20;99.90;;;;;;5018016;28;20050;-93
2023/11/19 00:56:12;;;;;;;42.90;7.32;;;13.60;99.90;;;;;;5015042;28;20594;-93
2023/11/19 00:58:37;;;;;;;47.50;7.90;;;14.10;99.90;;;;;;5015924;28;20057;-93
2023/11/19 01:01:03;;;;;;;48.83;7.20;;;13.90;99.90;;;;;;5013907;28;20057;-89
2023/11/19 01:03:29;;;;;;;30.25;6.32;;;13.20;99.90;;;;;;5018419;28;20033;-94
2023/11/19 01:05:54;;;;;;;37.58;7.70;;;14.20;99.90;;;;;;5021173;28;20094;-93
2023/11/19 01:08:20;;;;;;;50.95;8.52;;;14.20;99.90;;;;;;5006766;28;20026;-93
2023/11/19 01:10:46;;;;;;;37.45;7.55;;;13.00;99.90;;;;;;5000055;28;20470;-94
2023/11/19 01:13:11;;;;;;;51.90;8.43;;;14.00;99.90;;;;;;5000742;28;20030;-94
2023/11/19 01:15:37;;;;;;;40.85;7.50;;;14.10;99.90;;;;;;5006747;28;20060;-93
2023/11/19 01:18:04;;;;;;;46.30;8.10;;;13.70;99.90;;;;;;5017905;28;20038;-94
2023/11/19 01:20:30;;;;;;;42.45;7.95;;;13.20;99.90;;;;;;5017057;28;20022;-93
2023/11/19 01:22:56;;;;;;;49.00;8.20;;;14.20;99.90;;;;;;5013477;28;20391;-93
2023/11/19 01:25:21;;;;;;;38.92;7.30;;;13.60;99.90;;;;;;5015010;28;20470;-93
2023/11/19 01:27:50;;;;;;;44.42;7.10;;;13.90;99.90;;;;;;5015854;28;20486;-94
2023/11/19 01:30:16;;;;;;;43.05;8.27;;;14.20;99.90;;;;;;5016101;28;20038;-91
2023/11/19 01:32:41;;;;;;;56.85;9.30;;;13.80;99.90;;;;;;5014952;28;20060;-91
2023/11/19 01:35:10;;;;;;;40.85;8.07;;;13.30;99.90;;;;;;5015884;28;20025;-93
2023/11/19 01:37:36;;;;;;;61.38;9.05;;;13.10;99.90;;;;;;5015173;28;20100;-92
2023/11/19 01:40:06;;;;;;;46.72;8.15;;;13.00;99.90;;;;;;5015040;28;20053;-93
2023/11/19 01:42:39;;;;;;;45.53;8.07;;;13.00;99.90;;;;;;5020170;28;20050;-93
2023/11/19 01:45:09;;;;;;;45.45;8.38;;;12.90;99.90;;;;;;5054813;28;20034;-93
2023/11/19 01:47:35;;;;;;;52.13;9.77;;;12.90;99.90;;;;;;5045800;28;20409;-92
2023/11/19 01:50:06;;;;;;;46.78;8.32;;;13.40;99.90;;;;;;5035941;28;20298;-89
2023/11/19 01:52:37;;;;;;;55.88;7.93;;;13.10;99.90;;;;;;5042304;28;20226;-94
2023/11/19 01:55:04;;;;;;;57.22;9.55;;;13.50;99.90;;;;;;5056275;28;20460;-92
2023/11/19 01:57:30;;;;;;;57.88;8.48;;;12.80;99.90;;;;;;5057625;28;20021;-92
2023/11/19 01:59:55;;;;;;;51.25;8.88;;;13.60;99.90;;;;;;5057777;28;20108;-94
2023/11/19 02:02:21;;;;;;;49.00;8.45;;;13.70;99.90;;;;;;5050279;28;20485;-93
2023/11/19 02:04:58;;;;;;;51.97;9.30;;;12.30;99.90;;;;;;5053255;28;20048;-93
2023/11/19 02:07:25;;;;;;;50.33;9.73;;;13.20;99.90;;;;;;5055823;28;20025;-93
2023/11/19 02:09:51;;;;;;;55.33;9.18;;;13.30;99.90;;;;;;5055810;28;20036;-92
2023/11/19 02:12:16;;;;;;;57.65;9.07;;;12.70;99.90;;;;;;5055857;28;20099;-91
2023/11/19 02:14:42;;;;;;;61.72;9.57;;;13.60;99.90;;;;;;5055569;28;20451;-94
2023/11/19 02:17:34;;;;;;;66.35;11.10;;;12.70;99.90;;;;;;5057942;28;20040;-94
2023/11/19 02:20:00;;;;;;;56.00;9.75;;;12.30;99.90;;;;;;5056220;28;20025;-92
2023/11/19 02:22:26;;;;;;;49.22;9.07;;;13.70;99.90;;;;;;5055336;28;20055;-92
2023/11/19 02:25:07;;;;;;;57.75;10.20;;;13.70;99.90;;;;;;5038908;28;20069;-92
2023/11/19 02:27:55;;;;;;;54.17;9.55;;;13.40;99.90;;;;;;5038196;28;20087;-93
2023/11/19 02:30:26;;;;;;;52.58;9.77;;;12.60;99.90;;;;;;5054935;28;20450;-91
2023/11/19 02:32:52;;;;;;;59.80;10.90;;;13.90;99.90;;;;;;5055544;28;20107;-91
2023/11/19 02:35:18;;;;;;;68.43;9.55;;;13.20;99.90;;;;;;5053722;28;20025;-91
2023/11/19 02:37:45;;;;;;;64.55;10.45;;;13.40;99.90;;;;;;5066066;28;20017;-91
2023/11/19 02:40:10;;;;;;;63.97;9.48;;;13.30;99.90;;;;;;5071307;28;20469;-91
2023/11/19 02:42:36;;;;;;;63.60;9.73;;;12.50;99.90;;;;;;5058779;28;20041;-90
2023/11/19 02:45:06;;;;;;;72.30;10.15;;;13.40;99.90;;;;;;5051730;28;20127;-93
2023/11/19 02:47:33;;;;;;;60.13;9.23;;;12.40;99.90;;;;;;5034585;28;20026;-92
2023/11/19 02:49:59;;;;;;;60.15;10.13;;;13.40;99.90;;;;;;5045002;28;20461;-91
2023/11/19 02:52:25;;;;;;;54.17;9.60;;;13.20;99.90;;;;;;5054498;28;20025;-91
2023/11/19 02:54:51;;;;;;;75.70;10.57;;;12.30;99.90;;;;;;5053676;28;20120;-92
2023/11/19 02:57:19;;;;;;;65.22;10.57;;;12.90;99.90;;;;;;5054428;28;20025;-92
2023/11/19 02:59:45;;;;;;;63.00;10.30;;;12.30;99.90;;;;;;5055753;28;20029;-93
2023/11/19 03:02:11;;;;;;;69.03;11.05;;;12.80;99.90;;;;;;5054828;28;20086;-92
2023/11/19 03:04:41;;;;;;;64.57;10.73;;;12.30;99.90;;;;;;5054107;28;20511;-93
2023/11/19 03:07:07;;;;;;;77.25;11.15;;;13.70;99.90;;;;;;5054888;28;20025;-92
2023/11/19 03:09:36;;;;;;;55.03;11.23;;;13.10;99.90;;;;;;5054286;28;20029;-92
2023/11/19 03:12:02;;;;;;;65.95;10.27;;;13.30;99.90;;;;;;5039764;28;20021;-92
2023/11/19 03:14:27;;;;;;;57.63;9.80;;;12.20;99.90;;;;;;5037365;28;20108;-93
2023/11/19 03:16:53;;;;;;;55.97;9.27;;;12.90;99.90;;;;;;5040802;28;20433;-93
2023/11/19 03:19:19;;;;;;;60.47;8.70;;;13.10;99.90;;;;;;5054668;28;20028;-92
2023/11/19 03:21:45;;;;;;;58.15;9.52;;;11.50;99.90;;;;;;5055766;28;20028;-92
2023/11/19 03:24:17;;;;;;;52.42;8.32;;;12.20;99.90;;;;;;5054651;28;20167;-90
2023/11/19 03:26:42;;;;;;;68.10;10.45;;;13.00;99.90;;;;;;5053341;28;20037;-89
2023/11/19 03:29:08;;;;;;;56.65;9.85;;;12.20;99.90;;;;;;5053769;28;20361;-90
2023/11/19 03:31:34;;;;;;;70.80;11.40;;;13.10;99.90;;;;;;5065734;28;20025;-90
2023/11/19 03:33:59;;;;;;;66.55;10.05;;;12.80;99.90;;;;;;5070485;28;20552;-93
2023/11/19 03:36:25;;;;;;;49.15;10.13;;;12.40;99.90;;;;;;5055433;28;20472;-90
2023/11/19 03:38:52;;;;;;;71.75;10.30;;;13.80;99.90;;;;;;5053583;28;20040;-91
2023/11/19 03:41:18;;;;;;;70.10;10.23;;;13.70;99.90;;;;;;5054249;28;20032;-91
2023/11/19 03:43:43;;;;;;;64.88;9.48;;;13.30;99.90;;;;;;5054611;28;20397;-93
2023/11/19 03:46:19;;;;;;;48.55;8.07;;;13.00;99.90;;;;;;5055508;28;20492;-90
2023/11/19 03:48:49;;;;;;;71.55;10.35;;;12.10;99.90;;;;;;5059576;28;20029;-93
2023/11/19 03:51:15;;;;;;;54.88;8.27;;;12.10;99.90;;;;;;5050276;28;20078;-94
2023/11/19 03:53:42;;;;;;;65.55;9.73;;;12.80;99.90;;;;;;5040480;28;20033;-93
2023/11/19 03:56:09;;;;;;;77.45;11.23;;;12.90;99.90;;;;;;5039336;28;20032;-92
2023/11/19 03:58:35;;;;;;;58.03;8.68;;;12.00;99.90;;;;;;5057486;28;20096;-92
2023/11/19 04:01:02;;;;;;;57.70;9.40;;;13.00;99.90;;;;;;5068507;28;20085;-92
2023/11/19 04:03:29;;;;;;;60.08;9.80;;;12.70;99.90;;;;;;5063929;28;20056;-91
2023/11/19 04:05:56;;;;;;;67.85;12.52;;;12.00;99.90;;;;;;5061483;28;20017;-91
2023/11/19 04:08:22;;;;;;;51.05;8.80;;;11.50;99.90;;;;;;5061240;28;20033;-92
2023/11/19 04:10:48;;;;;;;66.97;11.20;;;13.20;99.90;;;;;;5061041;28;20021;-92
2023/11/19 04:13:19;;;;;;;64.75;11.75;;;12.70;99.90;;;;;;5058929;28;20076;-93
2023/11/19 04:15:46;;;;;;;40.85;7.13;;;12.90;99.90;;;;;;5057619;28;20048;-92
2023/11/19 04:18:11;;;;;;;64.70;10.15;;;12.90;99.90;;;;;;5060880;28;20029;-92
2023/11/19 04:20:37;;;;;;;72.20;10.20;;;12.00;99.90;;;;;;5061314;28;20032;-93
2023/11/19 04:23:07;;;;;;;47.22;10.25;;;12.40;99.90;;;;;;5059403;28;20045;-92
2023/11/19 04:25:35;;;;;;;68.30;10.17;;;12.50;99.90;;;;;;5046574;28;20048;-93
2023/11/19 04:28:02;;;;;;;62.70;10.77;;;12.70;99.90;;;;;;5057130;28;20296;-93
2023/11/19 04:30:28;;;;;;;65.72;10.20;;;11.90;99.90;;;;;;5045523;28;20564;-92
2023/11/19 04:32:57;;;;;;;62.53;9.82;;;11.90;99.90;;;;;;5043344;28;20541;-93
2023/11/19 04:35:23;;;;;;;74.72;11.05;;;11.80;99.90;;;;;;5039360;28;20037;-91
2023/11/19 04:37:49;;;;;;;65.70;9.38;;;11.90;99.90;;;;;;5056944;28;20033;-94
2023/11/19 04:40:15;;;;;;;56.65;10.73;;;12.20;99.90;;;;;;5064153;28;20029;-93
2023/11/19 04:42:53;;;;;;;54.10;10.63;;;11.80;99.90;;;;;;5065894;28;20116;-94
2023/11/19 04:45:20;;;;;;;47.50;9.07;;;11.80;99.90;;;;;;5066435;28;20024;-94
2023/11/19 04:47:46;;;;;;;48.95;8.60;;;12.50;99.90;;;;;;5061348;28;20033;-92
2023/11/19 04:50:18;;;;;;;63.72;10.02;;;11.40;99.90;;;;;;5068343;28;20032;-93
2023/11/19 04:52:46;;;;;;;68.00;9.13;;;11.80;99.90;;;;;;5070018;28;20077;-92
2023/11/19 04:55:15;;;;;;;69.43;11.45;;;12.90;99.90;;;;;;5069337;28;20044;-92
2023/11/19 04:57:41;;;;;;;60.83;10.13;;;11.80;99.90;;;;;;5065461;28;20033;-91
2023/11/19 05:00:11;;;;;;;75.47;10.48;;;12.70;99.90;;;;;;5067573;28;20064;-93
2023/11/19 05:02:37;;;;;;;59.35;9.65;;;11.70;99.90;;;;;;5060017;28;20033;-93
2023/11/19 05:05:04;;;;;;;56.25;9.63;;;12.60;99.90;;;;;;5056401;28;20045;-92
2023/11/19 05:07:30;;;;;;;62.08;10.25;;;11.80;99.90;;;;;;5057013;28;20063;-92
2023/11/19 05:09:55;;;;;;;58.45;10.32;;;12.70;99.90;;;;;;5055654;28;20116;-92
2023/11/19 05:12:22;;;;;;;69.88;10.07;;;11.80;99.90;;;;;;5056232;28;20493;-92
2023/11/19 05:14:50;;;;;;;72.68;10.65;;;12.80;99.90;;;;;;5056306;28;20029;-90
2023/11/19 05:17:19;;;;;;;66.72;10.52;;;12.60;99.90;;;;;;5054694;28;20116;-91
2023/11/19 05:19:45;;;;;;;65.18;8.73;;;11.70;99.90;;;;;;5056363;28;20028;-93
2023/11/19 05:22:10;;;;;;;71.50;11.05;;;11.40;99.90;;;;;;5060820;28;20032;-92
2023/11/19 05:24:36;;;;;;;70.72;10.32;;;11.80;99.90;;;;;;5190001;22;20374;-91
2023/11/19 05:27:02;;;;;;;56.78;10.70;;;12.80;99.90;;;;;;5061772;28;20095;-94
2023/11/19 05:29:28;;;;;;;62.17;11.18;;;11.70;99.90;;;;;;5061478;28;20092;-93
2023/11/19 05:31:55;;;;;;;69.85;10.50;;;11.80;99.90;;;;;;5063004;28;20025;-93
2023/11/19 05:34:21;;;;;;;64.72;9.82;;;11.80;99.90;;;;;;5061817;28;20037;-93
2023/11/19 05:36:46;;;;;;;55.85;9.15;;;11.70;99.90;;;;;;5061527;28;20021;-93
2023/11/19 05:39:12;;;;;;;65.35;13.02;;;11.70;99.90;;;;;;5062612;28;20025;-92
2023/11/19 05:41:38;;;;;;;65.10;10.65;;;11.70;99.90;;;;;;5066012;28;20035;-93
2023/11/19 05:44:03;;;;;;;61.22;9.65;;;11.80;99.90;;;;;;5065036;28;20028;-93
2023/11/19 05:46:29;;;;;;;67.68;10.02;;;11.80;99.90;;;;;;5071059;28;20070;-93
2023/11/19 05:48:54;;;;;;;53.47;9.60;;;11.70;99.90;;;;;;5066145;28;20051;-94
2023/11/19 05:51:20;;;;;;;60.65;9.75;;;11.80;99.90;;;;;;5055468;28;20043;-92
2023/11/19 05:53:45;;;;;;;60.65;10.57;;;12.70;99.90;;;;;;5054335;28;20029;-92
2023/11/19 05:56:11;;;;;;;52.83;10.13;;;11.70;99.90;;;;;;5058289;28;20020;-91
2023/11/19 05:58:39;;;;;;;70.75;10.20;;;11.70;99.90;;;;;;5054208;28;20089;-90
2023/11/19 06:01:07;;;;;;;52.58;10.00;;;11.70;99.90;;;;;;5055193;28;20024;-90
2023/11/19 06:03:36;;;;;;;63.15;11.23;;;11.70;99.90;;;;;;5054865;28;20104;-91
2023/11/19 06:06:02;;;;;;;64.65;9.32;;;11.70;99.90;;;;;;5051786;28;20107;-92
2023/11/19 06:08:27;;;;;;;67.95;10.65;;;11.70;99.90;;;;;;5036902;28;20079;-91
2023/11/19 06:10:53;;;;;;;79.55;11.55;;;11.70;99.90;;;;;;5054577;28;20033;-92
2023/11/19 06:13:19;;;;;;;46.88;8.50;;;11.70;99.90;;;;;;5041886;28;20580;-93
2023/11/19 06:15:45;;;;;;;54.53;9.00;;;11.70;99.90;;;;;;5047202;28;20033;-90
2023/11/19 06:18:11;;;;;;;56.47;10.68;;;11.60;99.90;;;;;;5064356;28;20509;-92
2023/11/19 06:20:37;;;;;;;55.90;9.50;;;11.60;99.90;;;;;;5061465;28;20029;-91
2023/11/19 06:23:02;;;;;;;57.53;9.73;;;11.60;99.90;;;;;;5054629;28;20048;-91
2023/11/19 06:25:28;;;;;;;70.53;10.80;;;12.20;99.90;;;;;;5054060;28;20049;-92
2023/11/19 06:27:54;;;;;;;63.88;9.70;;;11.70;99.90;;;;;;5053447;28;20056;-92
2023/11/19 06:30:23;;;;;;;64.05;10.52;;;11.70;99.90;;;;;;5051566;28;20083;-94
2023/11/19 06:32:48;;;;;;;73.78;10.00;;;12.20;99.90;;;;;;5053024;28;20033;-93
2023/11/19 06:35:14;;;;;;;72.93;10.13;;;11.60;99.90;;;;;;5053559;28;20032;-91
2023/11/19 06:37:40;;;;;;;60.65;8.60;;;11.60;99.90;;;;;;5053082;28;20404;-91
2023/11/19 06:40:09;;;;;;;58.00;9.20;;;11.60;99.90;;;;;;5053771;28;20441;-91
2023/11/19 06:42:35;;;;;;;65.35;9.35;;;11.70;99.90;;;;;;5053766;28;20469;-93
2023/11/19 06:45:00;;;;;;;54.10;9.35;;;12.30;99.90;;;;;;5054119;28;20033;-92
2023/11/19 06:47:30;;;;;;;55.25;8.75;;;12.60;99.90;;;;;;5053324;28;20043;-91
2023/11/19 06:49:56;;;;;;;73.80;8.60;;;12.00;99.90;;;;;;5054427;28;20029;-91
2023/11/19 06:52:21;;;;;;;57.08;9.45;;;12.50;99.90;;;;;;5050895;28;20519;-90
2023/11/19 06:55:02;;;;;;;51.50;8.38;;;10.60;99.90;;;;;;5053710;28;20049;-93
2023/11/19 06:57:45;;;;;;;57.58;8.77;;;11.50;99.90;;;;;;5064414;28;20044;-94
2023/11/19 07:00:41;;;;;;;52.55;8.48;;;12.30;99.90;;;;;;5061099;28;20032;-95
2023/11/19 07:03:20;;;;;;;49.05;8.77;;;11.60;99.90;;;;;;5066499;28;20047;-94
2023/11/19 07:08:47;;;;;;;66.78;8.98;;;11.50;99.90;;;;;;5063248;28;20046;-95
2023/11/19 07:11:17;;;;;;;72.13;11.13;;;12.10;99.90;;;;;;5066398;28;20048;-94
2023/11/19 07:13:45;;;;;;;68.25;9.90;;;11.60;99.90;;;;;;5071206;28;20029;-93
2023/11/19 07:16:14;;;;;;;70.57;10.90;;;12.80;99.90;;;;;;5055604;28;20032;-92
2023/11/19 07:18:57;;;;;;;52.97;8.68;;;11.70;99.90;;;;;;5045888;28;20041;-93
2023/11/19 07:21:37;;;;;;;60.20;10.43;;;11.40;99.90;;;;;;5061624;28;20035;-94
2023/11/19 07:29:35;;;;;;;52.97;8.80;;;11.80;99.90;;;;;;5090256;22;20127;-92
2023/11/19 07:32:05;;;;;;;63.00;9.43;;;13.00;99.90;;;;;;5045395;28;20033;-92
2023/11/19 07:34:34;;;;;;;57.95;8.82;;;11.80;99.90;;;;;;5046409;28;20040;-91
2023/11/19 07:37:02;;;;;;;63.47;8.30;;;11.80;99.90;;;;;;5053015;28;20469;-91
2023/11/19 07:39:28;;;;;;;55.40;8.75;;;12.70;99.90;;;;;;5051836;28;20025;-90
2023/11/19 07:42:20;;;;;;;52.30;8.65;;;12.60;99.90;;;;;;5062829;28;20018;-92
2023/11/19 07:44:46;;;;;;;53.05;9.18;;;11.80;99.90;;;;;;5034145;28;20041;-92
2023/11/19 07:47:12;;;;;;;63.50;8.85;;;13.20;99.90;;;;;;5057469;28;20035;-91
2023/11/19 07:49:47;;;;;;;66.65;9.82;;;12.40;99.90;;;;;;5051819;28;20025;-92
2023/11/19 07:52:13;;;;;;;60.75;8.95;;;11.80;99.90;;;;;;5045432;28;20053;-91
2023/11/19 07:54:38;;;;;;;48.92;9.35;;;11.90;99.90;;;;;;5039489;28;20071;-92
2023/11/19 07:57:04;;;;;;;57.83;8.80;;;11.80;99.90;;;;;;5049977;28;20017;-92
2023/11/19 07:59:42;;;;;;;42.40;8.35;;;11.80;99.90;;;;;;5043587;28;20080;-93
2023/11/19 08:02:10;;;;;;;48.95;8.95;;;11.40;99.90;;;;;;5050462;28;20021;-89
2023/11/19 08:04:45;;;;;;;59.63;9.60;;;11.80;99.90;;;;;;5062587;28;20021;-91
2023/11/19 08:07:11;;;;;;;56.22;11.27;;;11.80;99.90;;;;;;5057675;28;20088;-91
2023/11/19 08:09:47;;;;;;;40.45;8.30;;;12.70;99.90;;;;;;5057662;28;20100;-91
2023/11/19 08:12:14;;;;;;;39.80;7.57;;;13.30;99.90;;;;;;5034323;28;20029;-90
2023/11/19 08:14:40;;;;;;;50.22;8.45;;;12.50;99.90;;;;;;5049846;28;20039;-92
2023/11/19 08:17:10;;;;;;;48.40;8.02;;;12.30;99.90;;;;;;5049482;28;20033;-90
2023/11/19 08:19:36;;;;;;;42.28;6.95;;;12.60;99.90;;;;;;5047754;28;20056;-92
2023/11/19 08:22:02;;;;;;;45.25;9.13;;;12.50;99.90;;;;;;5048930;28;20127;-91
2023/11/19 08:24:28;;;;;;;53.50;8.43;;;11.90;99.90;;;;;;5051588;28;20538;-92
2023/11/19 08:30:15;;;;;;;55.85;9.30;;;11.90;99.90;;;;;;5107077;22;20068;-94
2023/11/19 08:32:53;;;;;;;49.15;8.27;;;11.90;99.90;;;;;;5056993;28;20075;-89
2023/11/19 08:35:20;;;;;;;50.05;8.77;;;11.90;99.90;;;;;;5074567;28;20033;-92
2023/11/19 08:37:46;;;;;;;64.93;9.85;;;11.90;99.90;;;;;;5072548;28;20036;-91
2023/11/19 08:40:15;;;;;;;54.80;8.45;;;12.80;99.90;;;;;;5074980;28;20054;-95
2023/11/19 08:42:40;;;;;;;56.58;9.43;;;12.00;99.90;;;;;;5067278;28;20483;-91
2023/11/19 08:52:52;;;;;;;44.55;7.45;;;12.10;99.90;;;;;;5105105;22;20060;-94
2023/11/19 08:55:18;;;;;;;44.38;8.95;;;12.00;99.90;;;;;;5070481;28;20484;-92
2023/11/19 08:57:45;;;;;;;44.33;8.73;;;12.10;99.90;;;;;;5079846;28;20020;-91
2023/11/19 09:00:14;;;;;;;47.08;8.20;;;12.10;99.90;;;;;;5081706;28;20049;-91
2023/11/19 09:02:39;;;;;;;59.33;8.75;;;12.10;99.90;;;;;;5059694;28;20421;-93
2023/11/19 09:05:12;;;;;;;57.22;9.10;;;12.60;99.90;;;;;;5070092;28;20374;-91
2023/11/19 09:07:48;;;;;;;56.10;7.82;;;11.50;99.90;;;;;;5072732;28;20100;-91
2023/11/19 09:10:15;;;;;;;47.72;7.38;;;12.60;99.90;;;;;;5070179;28;20035;-92
2023/11/19 09:12:41;;;;;;;39.28;7.00;;;12.90;99.90;;;;;;5063336;28;20112;-91
2023/11/19 09:15:07;;;;;;;37.85;7.03;;;12.80;99.90;;;;;;5066197;28;20108;-91
2023/11/19 09:17:33;;;;;;;40.70;6.97;;;12.20;99.90;;;;;;5071328;28;20534;-91
2023/11/19 09:19:58;;;;;;;51.53;8.60;;;12.60;99.90;;;;;;5066530;28;20032;-90
2023/11/19 09:22:24;;;;;;;42.20;8.32;;;13.00;99.90;;;;;;5062943;28;20017;-92
2023/11/19 09:24:49;;;;;;;50.67;8.23;;;12.20;99.90;;;;;;5077976;28;20131;-92
2023/11/19 09:27:15;;;;;;;53.35;10.98;;;12.30;99.90;;;;;;5074454;28;20032;-92
2023/11/19 09:33:00;;;;;;;48.90;8.77;;;12.20;99.90;;;;;;5054954;28;20040;-92
2023/11/19 09:35:26;;;;;;;54.78;8.50;;;13.70;99.90;;;;;;5071504;28;20402;-92
2023/11/19 09:38:02;;;;;;;41.20;7.25;;;12.30;99.90;;;;;;5068241;28;20107;-94
2023/11/19 09:44:19;;;;;;;50.17;8.95;;;12.20;99.90;;;;;;5000343;28;20634;-91
2023/11/19 09:47:31;;;;;;;;;;;;;;;;;;;;;
2023/11/19 09:50:00;;;;;;;48.95;9.10;;;12.50;99.90;;;;;;4913667;29;20032;-94
2023/11/19 09:52:34;;;;;;;47.58;7.53;;;13.20;99.90;;;;;;4949870;29;20051;-90
2023/11/19 09:55:03;;;;;;;56.38;8.60;;;12.90;99.90;;;;;;4944600;29;20055;-94
2023/11/19 09:57:32;;;;;;;54.30;8.15;;;12.40;99.90;;;;;;4948180;28;20046;-92
2023/11/19 09:59:58;;;;;;;41.85;8.75;;;13.30;99.90;;;;;;4972449;28;20050;-92
2023/11/19 10:02:24;;;;;;;57.20;7.55;;;12.50;99.90;;;;;;4970859;28;20034;-92
2023/11/19 10:04:50;;;;;;;55.50;8.63;;;13.10;99.90;;;;;;5042469;28;20045;-93
2023/11/19 10:07:16;;;;;;;60.53;10.77;;;13.20;99.90;;;;;;5048296;28;20390;-88
2023/11/19 10:09:43;;;;;;;67.18;9.02;;;12.40;99.90;;;;;;5052549;28;20111;-88
2023/11/19 10:12:12;;;;;;;62.22;9.20;;;12.70;99.90;;;;;;5039983;28;20025;-92
2023/11/19 10:14:39;;;;;;;56.75;8.60;;;12.80;99.90;;;;;;5039845;28;20461;-93
2023/11/19 10:17:07;;;;;;;53.58;9.32;;;13.20;99.90;;;;;;5040248;28;20025;-93
2023/11/19 10:19:39;;;;;;;46.55;9.25;;;13.00;99.90;;;;;;5051440;28;20167;-92
2023/11/19 10:22:05;;;;;;;47.03;8.73;;;11.60;99.90;;;;;;5042083;28;20021;-92
2023/11/19 10:24:33;;;;;;;51.38;8.75;;;13.30;99.90;;;;;;5045620;28;20095;-93
2023/11/19 10:27:00;;;;;;;54.60;9.48;;;14.10;99.90;;;;;;5044173;28;20022;-93
2023/11/19 10:29:26;;;;;;;42.22;7.60;;;13.50;99.90;;;;;;5049246;28;20041;-93
2023/11/19 10:32:18;;;;;;;62.15;10.43;;;13.50;99.90;;;;;;5045621;28;20021;-93
2023/11/19 10:34:43;;;;;;;61.95;10.25;;;12.70;99.90;;;;;;4990093;28;20038;-93
2023/11/19 10:37:26;;;;;;;57.03;10.15;;;12.80;99.90;;;;;;5035463;28;20702;-93
2023/11/19 10:39:54;;;;;;;52.60;8.13;;;13.60;99.90;;;;;;5042311;28;20021;-93
2023/11/19 10:42:23;;;;;;;53.35;8.10;;;13.00;99.90;;;;;;5047624;28;20025;-93
2023/11/19 10:44:49;;;;;;;48.33;8.23;;;13.80;99.90;;;;;;5043181;28;20037;-92
2023/11/19 10:47:18;;;;;;;40.80;8.13;;;13.00;99.90;;;;;;5048097;28;20068;-90
2023/11/19 10:49:45;;;;;;;51.90;9.15;;;12.80;99.90;;;;;;5061375;28;20035;-90
2023/11/19 10:52:16;;;;;;;53.92;8.32;;;12.90;99.90;;;;;;5061994;28;20078;-92
2023/11/19 10:54:44;;;;;;;53.20;8.75;;;13.50;99.90;;;;;;5063595;28;20013;-89
2023/11/19 10:57:15;;;;;;;44.90;8.15;;;13.10;99.90;;;;;;5063206;28;20134;-91
2023/11/19 10:59:44;;;;;;;50.15;9.25;;;13.10;99.90;;;;;;5062754;28;20025;-90
2023/11/19 11:02:16;;;;;;;56.15;9.85;;;13.50;99.90;;;;;;5063757;28;20059;-88
2023/11/19 11:04:43;;;;;;;37.85;8.52;;;13.10;99.90;;;;;;5055566;28;20460;-89
2023/11/19 11:07:10;;;;;;;42.00;7.97;;;13.00;99.90;;;;;;5066844;28;20067;-90
2023/11/19 11:09:35;;;;;;;37.90;7.30;;;13.10;99.90;;;;;;5065704;28;20032;-93
2023/11/19 11:12:03;;;;;;;45.58;8.15;;;13.10;99.90;;;;;;5068951;28;20048;-90
2023/11/19 11:14:37;;;;;;;50.50;8.85;;;13.00;99.90;;;;;;5066466;28;20060;-92
2023/11/19 11:17:03;;;;;;;47.30;8.20;;;13.50;99.90;;;;;;5074192;28;20025;-91
2023/11/19 11:19:29;;;;;;;55.65;8.18;;;13.60;99.90;;;;;;5071156;28;20029;-91
2023/11/19 11:21:56;;;;;;;48.42;7.70;;;13.30;99.90;;;;;;5075762;28;20647;-92
2023/11/19 11:24:41;;;;;;;41.28;7.60;;;13.20;99.90;;;;;;5074341;28;20032;-89
2023/11/19 11:27:37;;;;;;;35.53;6.22;;;13.20;99.90;;;;;;5061304;28;20024;-89
2023/11/19 11:30:24;;;;;;;35.83;7.38;;;13.00;99.90;;;;;;5061015;28;20032;-90
2023/11/19 11:33:04;;;;;;;43.75;7.93;;;13.00;99.90;;;;;;5066287;28;20431;-89
2023/11/19 11:35:49;;;;;;;44.40;7.57;;;13.00;99.90;;;;;;5059904;28;20064;-89
2023/11/19 11:38:16;;;;;;;34.53;6.50;;;13.00;99.90;;;;;;5070229;28;20396;-87
2023/11/19 11:40:43;;;;;;;37.70;6.80;;;13.00;99.90;;;;;;5056021;28;20037;-87
2023/11/19 11:43:44;;;;;;;33.53;7.15;;;13.10;99.90;;;;;;5052295;28;20033;-88
2023/11/19 11:46:29;;;;;;;45.40;6.93;;;13.10;99.90;;;;;;5025563;28;20064;-88
2023/11/19 11:48:57;;;;;;;34.05;7.10;;;13.10;99.90;;;;;;5052000;28;20025;-88
2023/11/19 11:51:42;;;;;;;37.95;6.15;;;13.10;99.90;;;;;;5051292;28;20048;-88
2023/11/19 11:54:08;;;;;;;35.10;6.10;;;13.20;99.90;;;;;;5052567;28;20029;-88
2023/11/19 11:56:38;;;;;;;40.17;6.35;;;13.50;99.90;;;;;;5067773;28;20526;-88
2023/11/19 11:59:07;;;;;;;36.85;6.68;;;13.20;99.90;;;;;;5067282;28;20412;-87
2023/11/19 12:01:33;;;;;;;35.67;6.72;;;13.20;99.90;;;;;;5071198;28;20069;-87
2023/11/19 12:03:58;;;;;;;41.70;7.53;;;13.80;99.90;;;;;;5066245;28;20377;-86
2023/11/19 12:06:26;;;;;;;62.90;10.52;;;13.20;99.90;;;;;;5073201;28;20021;-86
2023/11/19 12:08:52;;;;;;;50.53;8.68;;;13.20;99.90;;;;;;5077965;28;20029;-88
2023/11/19 12:11:19;;;;;;;45.97;7.95;;;13.20;99.90;;;;;;5076021;28;20103;-89
2023/11/19 12:14:02;;;;;;;32.90;7.22;;;13.20;99.90;;;;;;5071447;28;20060;-89
2023/11/19 12:16:29;;;;;;;37.67;8.07;;;13.20;99.90;;;;;;5064668;28;20387;-91
2023/11/19 12:18:55;;;;;;;45.72;9.30;;;13.20;99.90;;;;;;5073716;28;20020;-90
2023/11/19 12:21:31;;;;;;;55.15;8.70;;;13.20;99.90;;;;;;5073850;28;20533;-92
2023/11/19 12:24:02;;;;;;;40.58;7.32;;;13.20;99.90;;;;;;5084321;28;20063;-92
2023/11/19 12:26:34;;;;;;;51.00;8.63;;;13.30;99.90;;;;;;5064447;28;20025;-90
2023/11/19 12:29:03;;;;;;;50.10;7.95;;;13.30;99.90;;;;;;5077201;28;20067;-91
2023/11/19 12:31:30;;;;;;;39.40;7.93;;;13.40;99.90;;;;;;5084279;28;20421;-91
2023/11/19 12:33:55;;;;;;;46.90;7.85;;;13.40;99.90;;;;;;5087756;28;20182;-91
2023/11/19 12:36:21;;;;;;;51.55;8.07;;;13.40;99.90;;;;;;5075428;28;20105;-87
2023/11/19 12:38:46;;;;;;;33.33;7.28;;;13.50;99.90;;;;;;5074143;28;20033;-89
2023/11/19 12:41:13;;;;;;;42.30;7.80;;;13.50;99.90;;;;;;5075277;28;20441;-90
2023/11/19 12:43:39;;;;;;;39.30;7.72;;;13.50;99.90;;;;;;5075872;28;20064;-89
2023/11/19 12:46:18;;;;;;;40.40;7.32;;;13.50;99.90;;;;;;5075100;28;20110;-90
2023/11/19 12:48:44;;;;;;;47.22;9.15;;;13.50;99.90;;;;;;5073371;28;20071;-90
2023/11/19 12:51:09;;;;;;;34.67;6.03;;;13.50;99.90;;;;;;5081377;28;20075;-89
2023/11/19 12:53:53;;;;;;;37.30;7.47;;;13.40;99.90;;;;;;5088438;28;20039;-89
2023/11/19 12:56:20;;;;;;;42.70;7.45;;;13.40;99.90;;;;;;5095685;28;20052;-89
2023/11/19 12:58:46;;;;;;;40.83;6.90;;;13.40;99.90;;;;;;5095138;28;20047;-90
2023/11/19 13:01:19;;;;;;;43.45;7.35;;;13.40;99.90;;;;;;5074102;28;20037;-89
2023/11/19 13:03:45;;;;;;;56.20;10.38;;;13.40;99.90;;;;;;5073341;28;20499;-89
2023/11/19 13:06:13;;;;;;;41.05;8.60;;;13.40;99.90;;;;;;5074804;28;20029;-89
2023/11/19 13:08:44;;;;;;;55.10;8.10;;;13.30;99.90;;;;;;5074939;28;20116;-90
2023/11/19 13:11:10;;;;;;;;;;;13.30;99.90;;;;;;5085472;28;20035;-89